sensor_id;sensor_type;location;lat;lon;timestamp;P1;durP1;ratioP1;P2;durP2;ratioP2
52304;SDS011;38248;52.722;6.734;2022-09-24T00:00:53;56.33;;;42.15;;
52304;SDS011;38248;52.722;6.734;2022-09-24T00:03:19;52.25;;;40.83;;
52304;SDS011;38248;52.722;6.734;2022-09-24T00:05:46;51.35;;;39.97;;
52304;SDS011;38248;52.722;6.734;2022-09-24T00:08:13;48.72;;;41.25;;
52304;SDS011;38248;52.722;6.734;2022-09-24T00:10:41;54.05;;;41.70;;
52304;SDS011;38248;52.722;6.734;2022-09-24T00:13:09;51.63;;;40.85;;
52304;SDS011;38248;52.722;6.734;2022-09-24T00:15:39;53.38;;;41.95;;
52304;SDS011;38248;52.722;6.734;2022-09-24T00:18:06;59.58;;;41.80;;
52304;SDS011;38248;52.722;6.734;2022-09-24T00:20:33;55.08;;;41.42;;
52304;SDS011;38248;52.722;6.734;2022-09-24T00:22:59;57.70;;;42.47;;
52304;SDS011;38248;52.722;6.734;2022-09-24T00:25:25;54.70;;;43.45;;
52304;SDS011;38248;52.722;6.734;2022-09-24T00:28:10;50.15;;;41.15;;
52304;SDS011;38248;52.722;6.734;2022-09-24T00:30:37;56.75;;;41.92;;
52304;SDS011;38248;52.722;6.734;2022-09-24T00:33:07;56.70;;;44.05;;
52304;SDS011;38248;52.722;6.734;2022-09-24T00:35:34;52.72;;;41.83;;
52304;SDS011;38248;52.722;6.734;2022-09-24T00:38:00;56.88;;;42.90;;
52304;SDS011;38248;52.722;6.734;2022-09-24T00:40:27;60.45;;;42.90;;
52304;SDS011;38248;52.722;6.734;2022-09-24T00:42:54;60.38;;;43.75;;
52304;SDS011;38248;52.722;6.734;2022-09-24T00:45:20;59.67;;;43.78;;
52304;SDS011;38248;52.722;6.734;2022-09-24T00:47:46;55.00;;;42.35;;
52304;SDS011;38248;52.722;6.734;2022-09-24T00:50:26;56.67;;;44.05;;
52304;SDS011;38248;52.722;6.734;2022-09-24T00:52:57;52.17;;;41.22;;
52304;SDS011;38248;52.722;6.734;2022-09-24T00:55:27;59.45;;;44.50;;
52304;SDS011;38248;52.722;6.734;2022-09-24T00:57:54;56.22;;;43.63;;
52304;SDS011;38248;52.722;6.734;2022-09-24T01:00:21;58.33;;;43.53;;
52304;SDS011;38248;52.722;6.734;2022-09-24T01:02:48;60.20;;;43.88;;
52304;SDS011;38248;52.722;6.734;2022-09-24T01:05:18;56.95;;;44.15;;
52304;SDS011;38248;52.722;6.734;2022-09-24T01:07:43;62.13;;;44.53;;
52304;SDS011;38248;52.722;6.734;2022-09-24T01:10:12;58.60;;;44.65;;
52304;SDS011;38248;52.722;6.734;2022-09-24T01:13:01;56.03;;;42.63;;
52304;SDS011;38248;52.722;6.734;2022-09-24T01:15:58;52.38;;;42.72;;
52304;SDS011;38248;52.722;6.734;2022-09-24T01:21:13;54.95;;;42.97;;
52304;SDS011;38248;52.722;6.734;2022-09-24T01:29:36;60.25;;;42.47;;
52304;SDS011;38248;52.722;6.734;2022-09-24T01:32:13;62.13;;;43.45;;
52304;SDS011;38248;52.722;6.734;2022-09-24T01:34:53;60.22;;;43.72;;
52304;SDS011;38248;52.722;6.734;2022-09-24T01:37:22;55.47;;;41.92;;
52304;SDS011;38248;52.722;6.734;2022-09-24T01:39:51;61.55;;;44.35;;
52304;SDS011;38248;52.722;6.734;2022-09-24T01:42:20;60.25;;;43.72;;
52304;SDS011;38248;52.722;6.734;2022-09-24T01:44:49;59.05;;;42.88;;
52304;SDS011;38248;52.722;6.734;2022-09-24T01:47:20;59.08;;;42.65;;
52304;SDS011;38248;52.722;6.734;2022-09-24T01:49:53;58.95;;;43.78;;
52304;SDS011;38248;52.722;6.734;2022-09-24T01:52:21;56.70;;;42.13;;
52304;SDS011;38248;52.722;6.734;2022-09-24T01:54:53;55.15;;;41.13;;
52304;SDS011;38248;52.722;6.734;2022-09-24T01:57:29;60.42;;;42.50;;
52304;SDS011;38248;52.722;6.734;2022-09-24T02:02:37;60.28;;;42.17;;
52304;SDS011;38248;52.722;6.734;2022-09-24T02:05:19;58.80;;;41.75;;
52304;SDS011;38248;52.722;6.734;2022-09-24T02:08:08;59.25;;;42.50;;
52304;SDS011;38248;52.722;6.734;2022-09-24T02:10:37;55.65;;;42.22;;
52304;SDS011;38248;52.722;6.734;2022-09-24T02:13:27;61.35;;;43.67;;
52304;SDS011;38248;52.722;6.734;2022-09-24T02:15:58;57.97;;;44.40;;
52304;SDS011;38248;52.722;6.734;2022-09-24T02:18:28;57.50;;;41.47;;
52304;SDS011;38248;52.722;6.734;2022-09-24T02:20:57;65.53;;;43.72;;
52304;SDS011;38248;52.722;6.734;2022-09-24T02:23:27;61.03;;;42.50;;
52304;SDS011;38248;52.722;6.734;2022-09-24T02:25:55;65.93;;;45.00;;
52304;SDS011;38248;52.722;6.734;2022-09-24T02:28:26;60.58;;;42.05;;
52304;SDS011;38248;52.722;6.734;2022-09-24T02:30:56;57.10;;;39.90;;
52304;SDS011;38248;52.722;6.734;2022-09-24T02:33:26;63.95;;;42.65;;
52304;SDS011;38248;52.722;6.734;2022-09-24T02:36:12;60.28;;;41.45;;
52304;SDS011;38248;52.722;6.734;2022-09-24T02:38:38;67.80;;;42.03;;
52304;SDS011;38248;52.722;6.734;2022-09-24T02:41:04;60.15;;;43.63;;
52304;SDS011;38248;52.722;6.734;2022-09-24T02:43:33;61.47;;;40.13;;
52304;SDS011;38248;52.722;6.734;2022-09-24T02:46:00;61.42;;;39.97;;
52304;SDS011;38248;52.722;6.734;2022-09-24T02:48:26;64.75;;;44.33;;
52304;SDS011;38248;52.722;6.734;2022-09-24T02:50:51;66.35;;;44.33;;
52304;SDS011;38248;52.722;6.734;2022-09-24T02:53:18;62.38;;;44.42;;
52304;SDS011;38248;52.722;6.734;2022-09-24T02:55:44;66.35;;;46.22;;
52304;SDS011;38248;52.722;6.734;2022-09-24T02:58:10;71.22;;;45.72;;
52304;SDS011;38248;52.722;6.734;2022-09-24T03:00:35;64.03;;;44.33;;
52304;SDS011;38248;52.722;6.734;2022-09-24T03:03:01;64.70;;;46.50;;
52304;SDS011;38248;52.722;6.734;2022-09-24T03:05:26;66.38;;;45.53;;
52304;SDS011;38248;52.722;6.734;2022-09-24T03:07:52;64.28;;;45.58;;
52304;SDS011;38248;52.722;6.734;2022-09-24T03:10:17;67.00;;;44.90;;
52304;SDS011;38248;52.722;6.734;2022-09-24T03:12:43;70.55;;;47.35;;
52304;SDS011;38248;52.722;6.734;2022-09-24T03:15:11;70.13;;;47.08;;
52304;SDS011;38248;52.722;6.734;2022-09-24T03:17:37;68.43;;;46.67;;
52304;SDS011;38248;52.722;6.734;2022-09-24T03:20:03;68.75;;;48.20;;
52304;SDS011;38248;52.722;6.734;2022-09-24T03:22:29;76.95;;;47.65;;
52304;SDS011;38248;52.722;6.734;2022-09-24T03:24:54;73.50;;;46.65;;
52304;SDS011;38248;52.722;6.734;2022-09-24T03:27:20;71.22;;;48.28;;
52304;SDS011;38248;52.722;6.734;2022-09-24T03:29:45;74.88;;;48.13;;
52304;SDS011;38248;52.722;6.734;2022-09-24T03:32:29;73.55;;;47.22;;
52304;SDS011;38248;52.722;6.734;2022-09-24T03:34:57;72.82;;;48.33;;
52304;SDS011;38248;52.722;6.734;2022-09-24T03:37:25;72.95;;;48.70;;
52304;SDS011;38248;52.722;6.734;2022-09-24T03:39:50;72.93;;;48.80;;
52304;SDS011;38248;52.722;6.734;2022-09-24T03:42:16;72.75;;;50.03;;
52304;SDS011;38248;52.722;6.734;2022-09-24T03:44:41;76.07;;;49.35;;
52304;SDS011;38248;52.722;6.734;2022-09-24T03:47:07;69.68;;;48.72;;
52304;SDS011;38248;52.722;6.734;2022-09-24T03:49:34;71.07;;;48.15;;
52304;SDS011;38248;52.722;6.734;2022-09-24T03:51:59;69.45;;;49.17;;
52304;SDS011;38248;52.722;6.734;2022-09-24T03:54:25;77.03;;;49.72;;
52304;SDS011;38248;52.722;6.734;2022-09-24T03:56:50;68.80;;;47.30;;
52304;SDS011;38248;52.722;6.734;2022-09-24T03:59:16;75.78;;;49.80;;
52304;SDS011;38248;52.722;6.734;2022-09-24T04:01:41;75.88;;;48.13;;
52304;SDS011;38248;52.722;6.734;2022-09-24T04:04:07;76.07;;;49.90;;
52304;SDS011;38248;52.722;6.734;2022-09-24T04:06:32;74.57;;;48.53;;
52304;SDS011;38248;52.722;6.734;2022-09-24T04:08:59;72.28;;;48.60;;
52304;SDS011;38248;52.722;6.734;2022-09-24T04:11:24;70.60;;;46.25;;
52304;SDS011;38248;52.722;6.734;2022-09-24T04:13:50;73.38;;;47.47;;
52304;SDS011;38248;52.722;6.734;2022-09-24T04:16:16;70.50;;;47.70;;
52304;SDS011;38248;52.722;6.734;2022-09-24T04:18:42;73.78;;;47.55;;
52304;SDS011;38248;52.722;6.734;2022-09-24T04:21:07;67.10;;;45.55;;
52304;SDS011;38248;52.722;6.734;2022-09-24T04:23:33;68.90;;;47.35;;
52304;SDS011;38248;52.722;6.734;2022-09-24T04:25:59;68.30;;;45.65;;
52304;SDS011;38248;52.722;6.734;2022-09-24T04:28:26;66.25;;;45.30;;
52304;SDS011;38248;52.722;6.734;2022-09-24T04:30:52;68.22;;;45.05;;
52304;SDS011;38248;52.722;6.734;2022-09-24T04:33:18;69.80;;;46.67;;
52304;SDS011;38248;52.722;6.734;2022-09-24T04:35:44;72.22;;;44.15;;
52304;SDS011;38248;52.722;6.734;2022-09-24T04:38:11;65.78;;;44.97;;
52304;SDS011;38248;52.722;6.734;2022-09-24T04:40:36;71.18;;;45.30;;
52304;SDS011;38248;52.722;6.734;2022-09-24T04:43:03;75.07;;;46.40;;
52304;SDS011;38248;52.722;6.734;2022-09-24T04:45:30;66.28;;;44.85;;
52304;SDS011;38248;52.722;6.734;2022-09-24T04:47:57;72.88;;;43.70;;
52304;SDS011;38248;52.722;6.734;2022-09-24T04:50:27;67.80;;;44.22;;
52304;SDS011;38248;52.722;6.734;2022-09-24T04:52:56;64.43;;;42.45;;
52304;SDS011;38248;52.722;6.734;2022-09-24T04:55:22;62.15;;;40.95;;
52304;SDS011;38248;52.722;6.734;2022-09-24T04:57:54;65.78;;;43.03;;
52304;SDS011;38248;52.722;6.734;2022-09-24T05:00:21;61.92;;;40.05;;
52304;SDS011;38248;52.722;6.734;2022-09-24T05:02:46;60.15;;;40.28;;
52304;SDS011;38248;52.722;6.734;2022-09-24T05:05:19;59.08;;;40.83;;
52304;SDS011;38248;52.722;6.734;2022-09-24T05:07:44;59.90;;;39.58;;
52304;SDS011;38248;52.722;6.734;2022-09-24T05:10:10;54.55;;;38.20;;
52304;SDS011;38248;52.722;6.734;2022-09-24T05:12:36;56.40;;;38.08;;
52304;SDS011;38248;52.722;6.734;2022-09-24T05:15:03;58.67;;;38.80;;
52304;SDS011;38248;52.722;6.734;2022-09-24T05:17:29;55.45;;;37.38;;
52304;SDS011;38248;52.722;6.734;2022-09-24T05:19:55;57.50;;;39.28;;
52304;SDS011;38248;52.722;6.734;2022-09-24T05:22:22;55.88;;;37.10;;
52304;SDS011;38248;52.722;6.734;2022-09-24T05:24:49;53.53;;;36.70;;
52304;SDS011;38248;52.722;6.734;2022-09-24T05:27:14;55.13;;;34.72;;
52304;SDS011;38248;52.722;6.734;2022-09-24T05:29:41;49.97;;;34.00;;
52304;SDS011;38248;52.722;6.734;2022-09-24T05:32:11;53.72;;;34.70;;
52304;SDS011;38248;52.722;6.734;2022-09-24T05:34:39;54.08;;;34.85;;
52304;SDS011;38248;52.722;6.734;2022-09-24T05:37:07;51.90;;;34.38;;
52304;SDS011;38248;52.722;6.734;2022-09-24T05:39:32;51.38;;;32.85;;
52304;SDS011;38248;52.722;6.734;2022-09-24T05:41:58;52.58;;;33.88;;
52304;SDS011;38248;52.722;6.734;2022-09-24T05:44:24;50.90;;;32.20;;
52304;SDS011;38248;52.722;6.734;2022-09-24T05:46:49;54.53;;;33.83;;
52304;SDS011;38248;52.722;6.734;2022-09-24T05:49:16;52.65;;;33.20;;
52304;SDS011;38248;52.722;6.734;2022-09-24T05:51:42;52.38;;;33.58;;
52304;SDS011;38248;52.722;6.734;2022-09-24T05:54:08;56.88;;;34.42;;
52304;SDS011;38248;52.722;6.734;2022-09-24T05:56:35;50.67;;;31.77;;
52304;SDS011;38248;52.722;6.734;2022-09-24T05:59:01;52.08;;;32.78;;
52304;SDS011;38248;52.722;6.734;2022-09-24T06:01:27;55.40;;;33.10;;
52304;SDS011;38248;52.722;6.734;2022-09-24T06:03:56;56.25;;;31.95;;
52304;SDS011;38248;52.722;6.734;2022-09-24T06:06:22;55.50;;;33.00;;
52304;SDS011;38248;52.722;6.734;2022-09-24T06:08:49;51.78;;;31.52;;
52304;SDS011;38248;52.722;6.734;2022-09-24T06:11:14;50.28;;;31.90;;
52304;SDS011;38248;52.722;6.734;2022-09-24T06:13:40;49.72;;;31.42;;
52304;SDS011;38248;52.722;6.734;2022-09-24T06:16:06;51.30;;;30.65;;
52304;SDS011;38248;52.722;6.734;2022-09-24T06:18:34;55.25;;;33.38;;
52304;SDS011;38248;52.722;6.734;2022-09-24T06:21:01;54.97;;;32.72;;
52304;SDS011;38248;52.722;6.734;2022-09-24T06:23:29;56.22;;;32.22;;
52304;SDS011;38248;52.722;6.734;2022-09-24T06:25:56;54.38;;;31.95;;
52304;SDS011;38248;52.722;6.734;2022-09-24T06:28:22;54.78;;;33.33;;
52304;SDS011;38248;52.722;6.734;2022-09-24T06:30:49;53.72;;;32.67;;
52304;SDS011;38248;52.722;6.734;2022-09-24T06:33:15;51.45;;;32.38;;
52304;SDS011;38248;52.722;6.734;2022-09-24T06:35:41;58.70;;;32.00;;
52304;SDS011;38248;52.722;6.734;2022-09-24T06:38:12;54.70;;;32.83;;
52304;SDS011;38248;52.722;6.734;2022-09-24T06:40:39;53.05;;;33.42;;
52304;SDS011;38248;52.722;6.734;2022-09-24T06:43:05;59.50;;;32.20;;
52304;SDS011;38248;52.722;6.734;2022-09-24T06:45:31;49.17;;;31.42;;
52304;SDS011;38248;52.722;6.734;2022-09-24T06:47:58;46.60;;;30.10;;
52304;SDS011;38248;52.722;6.734;2022-09-24T06:50:25;49.03;;;29.65;;
52304;SDS011;38248;52.722;6.734;2022-09-24T06:52:52;50.45;;;31.35;;
52304;SDS011;38248;52.722;6.734;2022-09-24T06:55:19;53.85;;;32.75;;
52304;SDS011;38248;52.722;6.734;2022-09-24T06:57:44;56.50;;;32.42;;
52304;SDS011;38248;52.722;6.734;2022-09-24T07:00:10;50.92;;;31.75;;
52304;SDS011;38248;52.722;6.734;2022-09-24T07:02:37;52.90;;;33.13;;
52304;SDS011;38248;52.722;6.734;2022-09-24T07:05:03;52.35;;;33.17;;
52304;SDS011;38248;52.722;6.734;2022-09-24T07:07:30;54.40;;;33.00;;
52304;SDS011;38248;52.722;6.734;2022-09-24T07:10:08;53.40;;;32.20;;
52304;SDS011;38248;52.722;6.734;2022-09-24T07:12:34;48.72;;;30.65;;
52304;SDS011;38248;52.722;6.734;2022-09-24T07:15:00;49.15;;;31.35;;
52304;SDS011;38248;52.722;6.734;2022-09-24T07:17:26;47.70;;;31.95;;
52304;SDS011;38248;52.722;6.734;2022-09-24T07:19:53;48.42;;;30.55;;
52304;SDS011;38248;52.722;6.734;2022-09-24T07:22:19;48.92;;;30.52;;
52304;SDS011;38248;52.722;6.734;2022-09-24T07:24:45;53.10;;;32.83;;
52304;SDS011;38248;52.722;6.734;2022-09-24T07:27:11;46.28;;;30.20;;
52304;SDS011;38248;52.722;6.734;2022-09-24T07:29:38;51.58;;;32.78;;
52304;SDS011;38248;52.722;6.734;2022-09-24T07:32:04;51.58;;;32.22;;
52304;SDS011;38248;52.722;6.734;2022-09-24T07:34:30;44.20;;;29.90;;
52304;SDS011;38248;52.722;6.734;2022-09-24T07:36:56;47.15;;;30.77;;
52304;SDS011;38248;52.722;6.734;2022-09-24T07:39:23;44.67;;;30.45;;
52304;SDS011;38248;52.722;6.734;2022-09-24T07:41:49;46.13;;;29.95;;
52304;SDS011;38248;52.722;6.734;2022-09-24T07:44:18;49.03;;;31.95;;
52304;SDS011;38248;52.722;6.734;2022-09-24T07:46:53;49.55;;;31.80;;
52304;SDS011;38248;52.722;6.734;2022-09-24T07:49:19;51.22;;;32.20;;
52304;SDS011;38248;52.722;6.734;2022-09-24T07:51:45;49.85;;;31.30;;
52304;SDS011;38248;52.722;6.734;2022-09-24T07:54:11;51.42;;;31.50;;
52304;SDS011;38248;52.722;6.734;2022-09-24T07:56:37;44.95;;;29.80;;
52304;SDS011;38248;52.722;6.734;2022-09-24T07:59:03;48.25;;;31.67;;
52304;SDS011;38248;52.722;6.734;2022-09-24T08:01:32;48.97;;;29.52;;
52304;SDS011;38248;52.722;6.734;2022-09-24T08:03:59;52.28;;;31.15;;
52304;SDS011;38248;52.722;6.734;2022-09-24T08:06:25;50.67;;;30.55;;
52304;SDS011;38248;52.722;6.734;2022-09-24T08:08:51;49.40;;;30.55;;
52304;SDS011;38248;52.722;6.734;2022-09-24T08:11:17;49.60;;;31.73;;
52304;SDS011;38248;52.722;6.734;2022-09-24T08:13:44;51.55;;;30.55;;
52304;SDS011;38248;52.722;6.734;2022-09-24T08:16:10;46.03;;;29.38;;
52304;SDS011;38248;52.722;6.734;2022-09-24T08:18:36;51.25;;;31.42;;
52304;SDS011;38248;52.722;6.734;2022-09-24T08:21:07;52.50;;;30.70;;
52304;SDS011;38248;52.722;6.734;2022-09-24T08:23:36;54.58;;;31.70;;
52304;SDS011;38248;52.722;6.734;2022-09-24T08:26:03;49.10;;;30.98;;
52304;SDS011;38248;52.722;6.734;2022-09-24T08:28:29;53.28;;;30.15;;
52304;SDS011;38248;52.722;6.734;2022-09-24T08:30:56;51.10;;;30.00;;
52304;SDS011;38248;52.722;6.734;2022-09-24T08:33:23;46.75;;;27.58;;
52304;SDS011;38248;52.722;6.734;2022-09-24T08:35:48;48.58;;;30.40;;
52304;SDS011;38248;52.722;6.734;2022-09-24T08:38:14;44.28;;;26.85;;
52304;SDS011;38248;52.722;6.734;2022-09-24T08:40:44;45.47;;;26.48;;
52304;SDS011;38248;52.722;6.734;2022-09-24T08:46:09;38.63;;;23.75;;
52304;SDS011;38248;52.722;6.734;2022-09-24T08:49:00;36.80;;;23.23;;
52304;SDS011;38248;52.722;6.734;2022-09-24T08:51:28;37.17;;;21.60;;
52304;SDS011;38248;52.722;6.734;2022-09-24T08:54:04;32.00;;;21.45;;
52304;SDS011;38248;52.722;6.734;2022-09-24T08:56:35;33.75;;;21.33;;
52304;SDS011;38248;52.722;6.734;2022-09-24T08:59:16;32.22;;;20.50;;
52304;SDS011;38248;52.722;6.734;2022-09-24T09:04:29;29.52;;;18.05;;
52304;SDS011;38248;52.722;6.734;2022-09-24T09:07:12;26.83;;;17.50;;
52304;SDS011;38248;52.722;6.734;2022-09-24T09:09:48;26.67;;;18.15;;
52304;SDS011;38248;52.722;6.734;2022-09-24T09:12:26;29.50;;;18.00;;
52304;SDS011;38248;52.722;6.734;2022-09-24T09:15:03;28.52;;;17.80;;
52304;SDS011;38248;52.722;6.734;2022-09-24T09:20:15;26.50;;;16.67;;
52304;SDS011;38248;52.722;6.734;2022-09-24T09:22:48;27.73;;;17.42;;
52304;SDS011;38248;52.722;6.734;2022-09-24T09:28:28;28.65;;;17.88;;
52304;SDS011;38248;52.722;6.734;2022-09-24T09:37:28;27.05;;;16.30;;
52304;SDS011;38248;52.722;6.734;2022-09-24T09:40:26;27.52;;;15.88;;
52304;SDS011;38248;52.722;6.734;2022-09-24T09:43:03;24.38;;;15.65;;
52304;SDS011;38248;52.722;6.734;2022-09-24T09:45:53;23.20;;;14.02;;
52304;SDS011;38248;52.722;6.734;2022-09-24T09:48:23;22.20;;;12.90;;
52304;SDS011;38248;52.722;6.734;2022-09-24T09:50:54;20.42;;;13.50;;
52304;SDS011;38248;52.722;6.734;2022-09-24T09:53:28;18.38;;;12.63;;
52304;SDS011;38248;52.722;6.734;2022-09-24T09:56:00;10.32;;;6.97;;
52304;SDS011;38248;52.722;6.734;2022-09-24T09:58:32;18.88;;;8.20;;
52304;SDS011;38248;52.722;6.734;2022-09-24T10:01:06;15.57;;;8.13;;
52304;SDS011;38248;52.722;6.734;2022-09-24T10:06:10;14.68;;;7.25;;
52304;SDS011;38248;52.722;6.734;2022-09-24T10:08:37;8.93;;;4.47;;
52304;SDS011;38248;52.722;6.734;2022-09-24T10:11:04;10.27;;;4.60;;
52304;SDS011;38248;52.722;6.734;2022-09-24T10:13:32;13.27;;;3.97;;
52304;SDS011;38248;52.722;6.734;2022-09-24T10:15:58;10.57;;;3.70;;
52304;SDS011;38248;52.722;6.734;2022-09-24T10:20:53;10.20;;;2.28;;
52304;SDS011;38248;52.722;6.734;2022-09-24T10:23:21;10.48;;;2.55;;
52304;SDS011;38248;52.722;6.734;2022-09-24T10:25:58;12.25;;;2.08;;
52304;SDS011;38248;52.722;6.734;2022-09-24T10:28:25;7.95;;;1.83;;
52304;SDS011;38248;52.722;6.734;2022-09-24T10:31:21;8.50;;;1.60;;
52304;SDS011;38248;52.722;6.734;2022-09-24T10:33:49;9.18;;;1.70;;
52304;SDS011;38248;52.722;6.734;2022-09-24T10:36:21;8.07;;;1.90;;
52304;SDS011;38248;52.722;6.734;2022-09-24T10:38:59;13.00;;;2.30;;
52304;SDS011;38248;52.722;6.734;2022-09-24T10:41:49;6.10;;;1.00;;
52304;SDS011;38248;52.722;6.734;2022-09-24T10:44:17;5.32;;;1.98;;
52304;SDS011;38248;52.722;6.734;2022-09-24T10:49:49;7.10;;;2.30;;
52304;SDS011;38248;52.722;6.734;2022-09-24T10:57:41;3.90;;;1.45;;
52304;SDS011;38248;52.722;6.734;2022-09-24T11:00:19;8.65;;;1.60;;
52304;SDS011;38248;52.722;6.734;2022-09-24T11:08:56;6.97;;;0.85;;
52304;SDS011;38248;52.722;6.734;2022-09-24T11:17:09;6.45;;;1.27;;
52304;SDS011;38248;52.722;6.734;2022-09-24T11:22:17;6.32;;;1.20;;
52304;SDS011;38248;52.722;6.734;2022-09-24T11:25:03;3.03;;;1.40;;
52304;SDS011;38248;52.722;6.734;2022-09-24T11:30:17;4.75;;;1.67;;
52304;SDS011;38248;52.722;6.734;2022-09-24T11:35:49;5.75;;;1.58;;
52304;SDS011;38248;52.722;6.734;2022-09-24T11:39:05;7.72;;;1.25;;
52304;SDS011;38248;52.722;6.734;2022-09-24T11:46:52;10.43;;;1.65;;
52304;SDS011;38248;52.722;6.734;2022-09-24T11:49:50;8.07;;;1.10;;
52304;SDS011;38248;52.722;6.734;2022-09-24T11:52:53;6.65;;;1.13;;
52304;SDS011;38248;52.722;6.734;2022-09-24T11:55:30;7.28;;;1.73;;
52304;SDS011;38248;52.722;6.734;2022-09-24T12:00:48;4.40;;;1.15;;
52304;SDS011;38248;52.722;6.734;2022-09-24T12:03:23;5.00;;;1.15;;
52304;SDS011;38248;52.722;6.734;2022-09-24T12:06:09;6.38;;;1.30;;
52304;SDS011;38248;52.722;6.734;2022-09-24T12:08:40;4.97;;;1.10;;
52304;SDS011;38248;52.722;6.734;2022-09-24T12:11:32;2.80;;;1.17;;
52304;SDS011;38248;52.722;6.734;2022-09-24T12:16:32;9.32;;;1.15;;
52304;SDS011;38248;52.722;6.734;2022-09-24T12:21:48;8.43;;;1.45;;
52304;SDS011;38248;52.722;6.734;2022-09-24T12:24:22;5.35;;;1.05;;
52304;SDS011;38248;52.722;6.734;2022-09-24T12:26:49;6.53;;;1.58;;
52304;SDS011;38248;52.722;6.734;2022-09-24T12:32:34;7.28;;;1.33;;
52304;SDS011;38248;52.722;6.734;2022-09-24T12:38:15;3.38;;;0.63;;
52304;SDS011;38248;52.722;6.734;2022-09-24T12:40:50;6.57;;;0.90;;
52304;SDS011;38248;52.722;6.734;2022-09-24T12:46:40;1.77;;;0.22;;
52304;SDS011;38248;52.722;6.734;2022-09-24T12:49:18;4.00;;;0.80;;
52304;SDS011;38248;52.722;6.734;2022-09-24T12:51:57;2.78;;;0.75;;
52304;SDS011;38248;52.722;6.734;2022-09-24T12:54:34;4.85;;;0.90;;
52304;SDS011;38248;52.722;6.734;2022-09-24T12:57:06;6.30;;;1.02;;
52304;SDS011;38248;52.722;6.734;2022-09-24T12:59:52;8.77;;;0.95;;
52304;SDS011;38248;52.722;6.734;2022-09-24T13:12:40;3.67;;;0.57;;
52304;SDS011;38248;52.722;6.734;2022-09-24T13:15:19;6.93;;;0.60;;
52304;SDS011;38248;52.722;6.734;2022-09-24T13:18:22;4.93;;;0.70;;
52304;SDS011;38248;52.722;6.734;2022-09-24T13:21:07;4.07;;;0.68;;
52304;SDS011;38248;52.722;6.734;2022-09-24T13:23:43;2.92;;;0.60;;
52304;SDS011;38248;52.722;6.734;2022-09-24T13:26:12;3.95;;;0.75;;
52304;SDS011;38248;52.722;6.734;2022-09-24T13:28:54;5.78;;;0.60;;
52304;SDS011;38248;52.722;6.734;2022-09-24T13:31:45;3.92;;;0.75;;
52304;SDS011;38248;52.722;6.734;2022-09-24T13:34:17;5.18;;;0.70;;
52304;SDS011;38248;52.722;6.734;2022-09-24T13:36:47;2.05;;;0.70;;
52304;SDS011;38248;52.722;6.734;2022-09-24T13:39:23;6.00;;;0.93;;
52304;SDS011;38248;52.722;6.734;2022-09-24T13:42:10;4.57;;;0.50;;
52304;SDS011;38248;52.722;6.734;2022-09-24T13:44:59;6.30;;;0.88;;
52304;SDS011;38248;52.722;6.734;2022-09-24T13:47:41;4.88;;;0.70;;
52304;SDS011;38248;52.722;6.734;2022-09-24T13:50:29;7.10;;;0.75;;
52304;SDS011;38248;52.722;6.734;2022-09-24T13:53:05;4.88;;;0.60;;
52304;SDS011;38248;52.722;6.734;2022-09-24T13:55:45;5.07;;;0.50;;
52304;SDS011;38248;52.722;6.734;2022-09-24T13:58:36;2.50;;;0.50;;
52304;SDS011;38248;52.722;6.734;2022-09-24T14:01:10;4.72;;;0.80;;
52304;SDS011;38248;52.722;6.734;2022-09-24T14:03:41;3.88;;;0.50;;
52304;SDS011;38248;52.722;6.734;2022-09-24T14:06:15;3.50;;;0.63;;
52304;SDS011;38248;52.722;6.734;2022-09-24T14:08:46;2.80;;;0.65;;
52304;SDS011;38248;52.722;6.734;2022-09-24T14:11:18;3.28;;;0.38;;
52304;SDS011;38248;52.722;6.734;2022-09-24T14:13:48;4.05;;;0.80;;
52304;SDS011;38248;52.722;6.734;2022-09-24T14:16:18;3.47;;;0.90;;
52304;SDS011;38248;52.722;6.734;2022-09-24T14:18:59;3.75;;;0.60;;
52304;SDS011;38248;52.722;6.734;2022-09-24T14:24:14;1.80;;;0.50;;
52304;SDS011;38248;52.722;6.734;2022-09-24T14:26:53;1.80;;;0.70;;
52304;SDS011;38248;52.722;6.734;2022-09-24T14:29:26;6.20;;;1.10;;
52304;SDS011;38248;52.722;6.734;2022-09-24T14:31:57;2.60;;;1.05;;
52304;SDS011;38248;52.722;6.734;2022-09-24T14:34:32;2.95;;;0.80;;
52304;SDS011;38248;52.722;6.734;2022-09-24T14:37:17;3.70;;;1.10;;
52304;SDS011;38248;52.722;6.734;2022-09-24T14:40:02;5.05;;;1.30;;
52304;SDS011;38248;52.722;6.734;2022-09-24T14:45:24;4.68;;;1.45;;
52304;SDS011;38248;52.722;6.734;2022-09-24T14:48:32;4.32;;;1.88;;
52304;SDS011;38248;52.722;6.734;2022-09-24T14:50:54;5.45;;;1.77;;
52304;SDS011;38248;52.722;6.734;2022-09-24T14:53:24;6.22;;;1.98;;
52304;SDS011;38248;52.722;6.734;2022-09-24T14:55:52;6.72;;;2.08;;
52304;SDS011;38248;52.722;6.734;2022-09-24T14:58:22;6.20;;;2.05;;
52304;SDS011;38248;52.722;6.734;2022-09-24T15:01:01;5.68;;;1.50;;
52304;SDS011;38248;52.722;6.734;2022-09-24T15:03:39;4.65;;;1.60;;
52304;SDS011;38248;52.722;6.734;2022-09-24T15:06:13;5.50;;;2.45;;
52304;SDS011;38248;52.722;6.734;2022-09-24T15:08:50;5.35;;;1.95;;
52304;SDS011;38248;52.722;6.734;2022-09-24T15:11:25;4.80;;;1.30;;
52304;SDS011;38248;52.722;6.734;2022-09-24T15:13:56;5.45;;;1.70;;
52304;SDS011;38248;52.722;6.734;2022-09-24T15:16:27;4.60;;;1.52;;
52304;SDS011;38248;52.722;6.734;2022-09-24T15:21:30;2.13;;;0.90;;
52304;SDS011;38248;52.722;6.734;2022-09-24T15:23:59;5.32;;;1.67;;
52304;SDS011;38248;52.722;6.734;2022-09-24T15:26:26;3.55;;;1.42;;
52304;SDS011;38248;52.722;6.734;2022-09-24T15:28:55;3.03;;;1.52;;
52304;SDS011;38248;52.722;6.734;2022-09-24T15:31:22;5.18;;;2.10;;
52304;SDS011;38248;52.722;6.734;2022-09-24T15:33:48;2.92;;;1.48;;
52304;SDS011;38248;52.722;6.734;2022-09-24T15:36:14;3.22;;;1.70;;
52304;SDS011;38248;52.722;6.734;2022-09-24T15:38:43;3.42;;;1.33;;
52304;SDS011;38248;52.722;6.734;2022-09-24T15:41:12;5.13;;;1.80;;
52304;SDS011;38248;52.722;6.734;2022-09-24T15:43:38;6.60;;;2.03;;
52304;SDS011;38248;52.722;6.734;2022-09-24T15:46:04;3.92;;;1.65;;
52304;SDS011;38248;52.722;6.734;2022-09-24T15:48:29;5.97;;;2.13;;
52304;SDS011;38248;52.722;6.734;2022-09-24T15:50:55;4.05;;;2.20;;
52304;SDS011;38248;52.722;6.734;2022-09-24T15:53:22;3.85;;;2.03;;
52304;SDS011;38248;52.722;6.734;2022-09-24T15:55:57;11.30;;;2.40;;
52304;SDS011;38248;52.722;6.734;2022-09-24T15:58:26;7.47;;;1.95;;
52304;SDS011;38248;52.722;6.734;2022-09-24T16:00:52;5.55;;;1.98;;
52304;SDS011;38248;52.722;6.734;2022-09-24T16:05:47;7.75;;;1.63;;
52304;SDS011;38248;52.722;6.734;2022-09-24T16:08:13;4.32;;;1.50;;
52304;SDS011;38248;52.722;6.734;2022-09-24T16:10:39;6.03;;;1.45;;
52304;SDS011;38248;52.722;6.734;2022-09-24T16:13:05;6.65;;;1.40;;
52304;SDS011;38248;52.722;6.734;2022-09-24T16:15:32;6.47;;;1.50;;
52304;SDS011;38248;52.722;6.734;2022-09-24T16:17:58;7.28;;;2.08;;
52304;SDS011;38248;52.722;6.734;2022-09-24T16:20:23;3.45;;;1.40;;
52304;SDS011;38248;52.722;6.734;2022-09-24T16:22:49;5.13;;;1.35;;
52304;SDS011;38248;52.722;6.734;2022-09-24T16:25:14;9.57;;;2.33;;
52304;SDS011;38248;52.722;6.734;2022-09-24T16:27:40;8.73;;;1.50;;
52304;SDS011;38248;52.722;6.734;2022-09-24T16:30:07;5.80;;;1.40;;
52304;SDS011;38248;52.722;6.734;2022-09-24T16:32:33;8.65;;;1.90;;
52304;SDS011;38248;52.722;6.734;2022-09-24T16:34:59;8.77;;;1.40;;
52304;SDS011;38248;52.722;6.734;2022-09-24T16:37:24;5.90;;;2.20;;